1996 BARRY (1996002S15133)


On this page: IBTrACS data - Map and Plots - Positions - Intensities - Original source data

Summary

Start Jan 2
End Jan 9
Basins SI
SP
LMI 109 kt
Sources jtwc_sh
bom
neumann
In WMO? Yes
Previous storm 1996 BONITA (SI)
Previous in basin 1996 BONITA (SI)
Concurrent storms 1995 DAN (WP)
1996 BONITA (SI)
1996 BARRY (SI)
1996 CORYNA (SI)
Next in basin 1996 CORYNA (SI)
Next storm 1996 CORYNA (SI)

top of page IBTrACS Data: File Access

top of page HURSAT Data: File Access

Image of storm

top of page Plots:

Map of storm track will not appear if FTP is down
Time series of cyclone Maximum Sustained Wind will not appear if FTP is down
Time series of cyclone Minimum Central Pressure will not appear if FTP is down

top of page Track Data:Position

jtwc_sh bom neumann
Date Lat Lon Lat Lon Lat Lon
1996-01-02 06:00:00 -15.0 132.9 -15.0 132.9
1996-01-02 12:00:00 -15.0 134.2 -15.0 134.2
1996-01-02 18:00:00 -15.1 135.7 -15.1 135.7
1996-01-03 00:00:00 -15.7 137.1 -15.7 137.1
1996-01-03 06:00:00 -15.7 138.2 -15.7 138.2
1996-01-03 12:00:00 -15.6 138.7 -15.6 138.7
1996-01-03 18:00:00 -15.5 138.9 -15.5 138.9
1996-01-04 00:00:00 -15.4 139.0 -14.8 138.8 -15.4 139.0
1996-01-04 06:00:00 -15.3 139.1 -14.8 139.2 -15.3 139.1
1996-01-04 12:00:00 -15.2 139.4 -14.9 139.6 -15.2 139.4
1996-01-04 18:00:00 -15.3 139.8 -15.0 140.0 -15.3 139.8
1996-01-05 00:00:00 -15.7 140.4 -15.6 140.5 -15.7 140.4
1996-01-05 06:00:00 -16.1 140.9 -16.0 140.9 -16.1 140.9
1996-01-05 12:00:00 -16.7 141.2 -16.6 141.4 -16.7 141.2
1996-01-05 18:00:00 -16.9 141.3 -16.9 141.4 -16.9 141.3
1996-01-06 00:00:00 -17.0 141.3 -17.1 141.6 -17.0 141.3
1996-01-06 06:00:00 -17.2 141.5 -17.3 141.9 -17.2 141.5
1996-01-06 12:00:00 -17.3 141.9 -17.6 142.1 -17.3 141.9
1996-01-06 18:00:00 -17.5 142.2 -17.9 142.3 -17.5 142.2
1996-01-07 00:00:00 -17.9 142.5 -18.1 142.5 -17.9 142.5
1996-01-07 06:00:00 -18.4 142.7 -18.4 142.7
1996-01-07 12:00:00 -19.1 142.9 -19.1 142.9
1996-01-07 18:00:00 -19.9 143.5 -19.9 143.5
1996-01-08 00:00:00 -20.7 144.4 -20.7 144.4
1996-01-08 06:00:00 -21.3 145.3 -21.3 145.3
jtwc_sh bom neumann
1996-01-08 12:00:00 -22.0 146.2 -22.0 146.2
1996-01-08 18:00:00 -22.8 147.2 -22.8 147.2
1996-01-09 00:00:00 -23.4 148.2 -23.4 148.2
1996-01-09 06:00:00 -24.1 149.1 -24.1 149.1
1996-01-09 12:00:00 -24.7 149.9 -24.7 149.9

top of pageTrack Data:Intensity

jtwc_sh bom neumann
Date Wind Pres Wind Pres Wind Pres
1996-01-02 06:00:00 15. 15.
1996-01-02 12:00:00 15. 15.
1996-01-02 18:00:00 15. 15.
1996-01-03 00:00:00 20. 20.
1996-01-03 06:00:00 20. 20.
1996-01-03 12:00:00 20. 20.
1996-01-03 18:00:00 25. 25.
1996-01-04 00:00:00 30. 49. 995. 30.
1996-01-04 06:00:00 30. 54. 990. 30.
1996-01-04 12:00:00 35. 54. 990. 35.
1996-01-04 18:00:00 40. 54. 985. 40.
1996-01-05 00:00:00 55. 74. 970. 55.
1996-01-05 06:00:00 80. 109. 950. 80.
1996-01-05 12:00:00 80. 109. 960. 75.
1996-01-05 18:00:00 75. 82. 975. 50.
1996-01-06 00:00:00 70. 70. 980. 40.
1996-01-06 06:00:00 65. 70. 980. 35.
1996-01-06 12:00:00 60. 60. 985. 30.
1996-01-06 18:00:00 55. 54. 990. 30.
1996-01-07 00:00:00 45. 27. 995. 30.
1996-01-07 06:00:00 35. 30.
1996-01-07 12:00:00 25. 25.
1996-01-07 18:00:00 20. 20.
1996-01-08 00:00:00 20. 20.
1996-01-08 06:00:00 20. 20.
jtwc_sh bom neumann
1996-01-08 12:00:00 20. 20.
1996-01-08 18:00:00 15. 15.
1996-01-09 00:00:00 15. 15.
1996-01-09 06:00:00 15. 15.
1996-01-09 12:00:00 15. 15.

top of page Links to source data

Source Source file Format
jtwc_sh bsh051996.txt ATCF
bom IDCKMSTM0S.csv:Line=19775:BARRY CSV file (from Excel file)
neumann tracks.sh:Storm=1041:BARRY:BSH051996:JTWC&BM837 HURDAT